createdAt,value
2019-03-19T00:00:48.494Z,0.50
2019-03-19T00:03:53.700Z,0.47
2019-03-19T00:06:58.898Z,0.43
2019-03-19T00:10:04.041Z,0.48
2019-03-19T00:13:09.244Z,0.55
2019-03-19T00:16:14.481Z,0.56
2019-03-19T00:19:19.610Z,0.43
2019-03-19T00:22:25.889Z,0.37
2019-03-19T00:25:31.128Z,0.27
2019-03-19T00:28:36.272Z,0.28
2019-03-19T00:31:41.344Z,0.44
2019-03-19T00:34:46.542Z,0.25
2019-03-19T00:37:51.767Z,0.02
2019-03-19T00:40:57.923Z,-0.09
2019-03-19T00:44:04.313Z,0.18
2019-03-19T00:47:09.469Z,0.01
2019-03-19T00:50:14.778Z,-0.13
2019-03-19T00:53:20.136Z,-0.15
2019-03-19T00:56:25.330Z,-0.04
2019-03-19T00:59:30.507Z,-0.04
2019-03-19T01:02:35.667Z,-0.12
2019-03-19T01:05:40.876Z,-0.06
2019-03-19T01:08:46.115Z,0.00
2019-03-19T01:11:51.244Z,-0.26
2019-03-19T01:14:56.400Z,-0.12
2019-03-19T01:18:01.594Z,-0.21
2019-03-19T01:21:06.796Z,-0.16
2019-03-19T01:24:11.935Z,-0.25
2019-03-19T01:27:17.109Z,-0.34
2019-03-19T01:30:22.298Z,-0.44
2019-03-19T01:33:27.425Z,-0.49
2019-03-19T01:36:32.627Z,-0.48
2019-03-19T01:39:37.775Z,-0.57
2019-03-19T01:42:42.947Z,-0.57
2019-03-19T01:45:48.090Z,-0.57
2019-03-19T01:48:53.298Z,-0.47
2019-03-19T01:51:58.408Z,-0.48
2019-03-19T01:55:03.733Z,-0.54
2019-03-19T01:58:08.889Z,-0.58
2019-03-19T02:01:14.083Z,-0.48
2019-03-19T02:04:19.150Z,-0.56
2019-03-19T02:07:24.371Z,-0.54
2019-03-19T02:10:29.493Z,-0.59
2019-03-19T02:13:34.690Z,-0.85
2019-03-19T02:16:39.841Z,-1.01
2019-03-19T02:19:45.038Z,-1.05
2019-03-19T02:22:50.162Z,-0.98
2019-03-19T02:25:55.341Z,-0.81
2019-03-19T02:29:00.519Z,-0.78
2019-03-19T02:32:05.703Z,-0.71
2019-03-19T02:35:11.521Z,-0.73
2019-03-19T02:38:16.730Z,-0.80
2019-03-19T02:41:21.828Z,-0.68
2019-03-19T02:44:27.119Z,-0.80
2019-03-19T02:47:32.346Z,-0.73
2019-03-19T02:50:37.514Z,-0.78
2019-03-19T02:53:42.741Z,-0.65
2019-03-19T02:56:47.846Z,-0.76
2019-03-19T02:59:53.040Z,-0.80
2019-03-19T03:02:58.164Z,-0.86
2019-03-19T03:06:03.323Z,-0.90
2019-03-19T03:09:08.523Z,-0.96
2019-03-19T03:12:13.661Z,-0.80
2019-03-19T03:15:18.822Z,-0.81
2019-03-19T03:18:23.951Z,-0.82
2019-03-19T03:21:29.150Z,-0.87
2019-03-19T03:24:35.378Z,-0.91
2019-03-19T03:27:40.533Z,-0.99
2019-03-19T03:30:45.721Z,-0.87
2019-03-19T03:33:50.921Z,-0.93
2019-03-19T03:36:56.081Z,-0.81
2019-03-19T03:40:01.300Z,-0.91
2019-03-19T03:43:06.517Z,-0.89
2019-03-19T03:46:11.662Z,-0.97
2019-03-19T03:49:16.792Z,-1.03
2019-03-19T03:52:22.010Z,-1.14
2019-03-19T03:55:27.146Z,-1.04
2019-03-19T03:58:32.339Z,-1.12
2019-03-19T04:01:37.536Z,-1.09
2019-03-19T04:04:42.690Z,-1.08
2019-03-19T04:07:47.938Z,-0.87
2019-03-19T04:10:53.074Z,-0.91
2019-03-19T04:13:58.230Z,-0.99
2019-03-19T04:17:03.303Z,-1.04
2019-03-19T04:20:08.629Z,-1.05
2019-03-19T04:23:13.765Z,-1.25
2019-03-19T04:26:18.915Z,-1.31
2019-03-19T04:29:24.036Z,-1.20
2019-03-19T04:32:29.203Z,-1.34
2019-03-19T04:35:34.310Z,-1.32
2019-03-19T04:38:39.506Z,-1.31
2019-03-19T04:41:44.814Z,-1.10
2019-03-19T04:44:49.965Z,-1.06
2019-03-19T04:47:55.121Z,-0.93
2019-03-19T04:51:00.250Z,-1.05
2019-03-19T04:54:05.371Z,-1.05
2019-03-19T04:57:10.538Z,-1.10
2019-03-19T05:00:15.948Z,-0.91
2019-03-19T05:03:21.084Z,-0.93
2019-03-19T05:06:26.264Z,-1.08
2019-03-19T05:09:31.467Z,-1.12
2019-03-19T05:12:36.611Z,-1.14
2019-03-19T05:15:41.760Z,-1.15
2019-03-19T05:18:46.974Z,-1.16
2019-03-19T05:21:52.231Z,-1.29
2019-03-19T05:24:57.392Z,-1.30
2019-03-19T05:28:02.615Z,-1.26
2019-03-19T05:31:07.802Z,-1.30
2019-03-19T05:34:12.973Z,-1.11
2019-03-19T05:37:18.195Z,-1.17
2019-03-19T05:40:23.516Z,-1.15
2019-03-19T05:43:28.712Z,-1.10
2019-03-19T05:46:33.871Z,-0.99
2019-03-19T05:49:38.992Z,-1.10
2019-03-19T05:52:44.173Z,-1.15
2019-03-19T05:55:49.344Z,-1.13
2019-03-19T05:58:54.519Z,-1.08
2019-03-19T06:01:59.730Z,-1.00
2019-03-19T06:05:05.237Z,-1.01
2019-03-19T06:08:10.394Z,-1.10
2019-03-19T06:11:15.621Z,-1.12
2019-03-19T06:14:20.987Z,-1.01
2019-03-19T06:17:26.174Z,-1.05
2019-03-19T06:20:31.315Z,-0.75
2019-03-19T06:23:36.500Z,-0.83
2019-03-19T06:26:41.645Z,-0.56
2019-03-19T06:29:46.840Z,-0.50
2019-03-19T06:32:52.009Z,-0.50
2019-03-19T06:35:57.254Z,-0.33
2019-03-19T06:39:02.455Z,-0.22
2019-03-19T06:42:07.673Z,-0.01
2019-03-19T06:45:13.928Z,-0.23
2019-03-19T06:48:19.173Z,0.08
2019-03-19T06:51:25.998Z,0.10
2019-03-19T06:54:31.135Z,0.13
2019-03-19T06:57:39.457Z,0.27
2019-03-19T07:00:43.045Z,0.09
2019-03-19T07:03:48.149Z,0.33
2019-03-19T07:06:53.487Z,0.35
2019-03-19T07:09:58.669Z,0.60
2019-03-19T07:13:03.776Z,0.96
2019-03-19T07:16:08.976Z,0.89
2019-03-19T07:19:14.140Z,1.05
2019-03-19T07:22:19.284Z,1.36
2019-03-19T07:25:24.383Z,1.43
2019-03-19T07:28:30.472Z,1.48
2019-03-19T07:31:35.610Z,1.50
2019-03-19T07:34:40.828Z,1.82
2019-03-19T07:37:45.995Z,1.73
2019-03-19T07:40:51.179Z,2.12
2019-03-19T07:43:56.315Z,2.54
2019-03-19T07:47:01.391Z,2.64
2019-03-19T07:50:07.794Z,2.59
2019-03-19T07:53:12.936Z,3.15
2019-03-19T07:56:18.123Z,3.32
2019-03-19T07:59:23.370Z,2.92
2019-03-19T08:02:28.653Z,2.52
2019-03-19T08:05:33.976Z,2.74
2019-03-19T08:08:39.223Z,2.93
2019-03-19T08:11:44.366Z,3.25
2019-03-19T08:14:49.489Z,3.04
2019-03-19T08:17:54.638Z,3.58
2019-03-19T08:20:59.798Z,3.91
2019-03-19T08:24:04.969Z,3.52
2019-03-19T08:27:10.215Z,3.70
2019-03-19T08:30:16.533Z,3.77
2019-03-19T08:33:21.671Z,3.54
2019-03-19T08:36:26.863Z,3.28
2019-03-19T08:39:32.023Z,3.13
2019-03-19T08:42:37.188Z,3.14
2019-03-19T08:45:42.395Z,3.08
2019-03-19T08:48:47.496Z,3.29
2019-03-19T08:51:52.643Z,3.75
2019-03-19T08:54:58.910Z,3.75
2019-03-19T08:58:04.118Z,3.94
2019-03-19T09:01:09.209Z,4.00
2019-03-19T09:04:14.413Z,3.96
2019-03-19T09:07:20.183Z,4.60
2019-03-19T09:10:25.491Z,5.31
2019-03-19T09:13:30.669Z,5.24
2019-03-19T09:16:35.917Z,4.95
2019-03-19T09:19:41.018Z,5.72
2019-03-19T09:22:46.159Z,5.93
2019-03-19T09:25:52.355Z,5.38
2019-03-19T09:28:57.518Z,5.18
2019-03-19T09:32:02.741Z,5.61
2019-03-19T09:35:07.811Z,5.53
2019-03-19T09:38:12.968Z,6.02
2019-03-19T09:41:18.123Z,6.39
2019-03-19T09:44:23.443Z,6.57
2019-03-19T09:47:28.547Z,6.37
2019-03-19T09:50:33.763Z,6.91
2019-03-19T09:53:39.978Z,7.54
2019-03-19T09:56:45.148Z,7.65
2019-03-19T09:59:50.289Z,7.61
2019-03-19T10:02:55.462Z,7.95
2019-03-19T10:06:12.643Z,8.65
2019-03-19T10:09:08.881Z,8.41
2019-03-19T10:12:14.053Z,8.66
2019-03-19T10:15:19.948Z,9.21
2019-03-19T10:18:25.054Z,9.31
2019-03-19T10:21:30.234Z,9.47
2019-03-19T10:24:35.408Z,9.07
2019-03-19T10:27:40.490Z,8.20
2019-03-19T10:30:45.660Z,8.33
2019-03-19T10:33:50.870Z,8.00
2019-03-19T10:36:55.998Z,7.78
2019-03-19T10:40:01.252Z,7.62
2019-03-19T10:43:06.545Z,8.05
2019-03-19T10:46:11.672Z,8.31
2019-03-19T10:49:16.772Z,7.69
2019-03-19T10:52:21.962Z,7.86
2019-03-19T10:55:27.090Z,8.56
2019-03-19T10:58:32.201Z,9.18
2019-03-19T11:01:37.313Z,9.34
2019-03-19T11:04:42.418Z,9.69
2019-03-19T11:07:47.604Z,9.67
2019-03-19T11:10:52.745Z,9.45
2019-03-19T11:13:57.865Z,8.59
2019-03-19T11:17:02.953Z,8.57
2019-03-19T11:20:09.209Z,8.75
2019-03-19T11:23:14.386Z,9.09
2019-03-19T11:26:19.667Z,9.83
2019-03-19T11:29:24.842Z,10.03
2019-03-19T11:32:30.126Z,9.52
2019-03-19T11:35:35.237Z,9.31
2019-03-19T11:38:40.427Z,9.12
2019-03-19T11:41:45.556Z,9.07
2019-03-19T11:44:50.687Z,9.76
2019-03-19T11:47:55.898Z,10.15
2019-03-19T11:51:01.236Z,10.18
2019-03-19T11:54:06.446Z,10.96
2019-03-19T11:57:11.620Z,11.13
2019-03-19T12:00:49.637Z,11.70
2019-03-19T12:03:54.829Z,11.55
2019-03-19T12:07:01.162Z,10.56
2019-03-19T12:10:06.640Z,10.14
2019-03-19T12:13:11.805Z,9.65
2019-03-19T12:16:16.929Z,9.00
2019-03-19T12:19:22.166Z,8.92
2019-03-19T12:22:27.262Z,9.23
2019-03-19T12:25:32.447Z,9.86
2019-03-19T12:28:39.892Z,10.39
2019-03-19T12:31:44.498Z,10.65
2019-03-19T12:34:49.504Z,11.20
2019-03-19T12:37:54.706Z,11.40
2019-03-19T12:40:59.855Z,11.39
2019-03-19T12:44:05.046Z,10.94
2019-03-19T12:47:10.214Z,10.91
2019-03-19T12:50:16.576Z,10.58
2019-03-19T12:53:22.864Z,10.07
2019-03-19T12:56:28.194Z,10.04
2019-03-19T12:59:33.373Z,9.82
2019-03-19T13:02:38.467Z,10.08
2019-03-19T13:05:43.627Z,10.61
2019-03-19T13:08:48.874Z,10.97
2019-03-19T13:11:54.014Z,11.15
2019-03-19T13:14:59.238Z,10.67
2019-03-19T13:18:04.381Z,11.01
2019-03-19T13:21:09.602Z,10.82
2019-03-19T13:24:17.159Z,10.50
2019-03-19T13:27:21.587Z,10.32
2019-03-19T13:30:26.757Z,10.40
2019-03-19T13:33:31.930Z,10.31
2019-03-19T13:36:37.095Z,10.80
2019-03-19T13:39:42.195Z,10.70
2019-03-19T13:42:47.548Z,10.33
2019-03-19T13:45:52.774Z,10.30
2019-03-19T13:48:57.904Z,10.55
2019-03-19T13:52:03.079Z,10.71
2019-03-19T13:55:11.335Z,10.58
2019-03-19T13:58:16.600Z,10.92
2019-03-19T14:01:21.773Z,11.23
2019-03-19T14:04:26.886Z,10.88
2019-03-19T14:07:32.063Z,10.85
2019-03-19T14:10:37.169Z,10.59
2019-03-19T14:13:42.307Z,10.52
2019-03-19T14:16:47.455Z,10.63
2019-03-19T14:19:52.606Z,10.82
2019-03-19T14:23:00.526Z,10.70
2019-03-19T14:26:05.725Z,10.59
2019-03-19T14:29:10.801Z,10.39
2019-03-19T14:32:16.050Z,10.27
2019-03-19T14:35:21.204Z,10.07
2019-03-19T14:38:26.472Z,10.28
2019-03-19T14:41:31.616Z,10.31
2019-03-19T14:44:36.798Z,10.46
2019-03-19T14:47:41.896Z,10.40
2019-03-19T14:50:47.089Z,10.35
2019-03-19T14:53:52.223Z,10.22
2019-03-19T14:56:57.496Z,10.24
2019-03-19T15:00:02.627Z,10.45
2019-03-19T15:03:08.320Z,10.38
2019-03-19T15:06:13.439Z,10.34
2019-03-19T15:09:18.665Z,9.86
2019-03-19T15:12:23.863Z,9.90
2019-03-19T15:15:29.071Z,10.15
2019-03-19T15:18:34.158Z,10.17
2019-03-19T15:21:39.403Z,9.94
2019-03-19T15:24:44.789Z,9.80
2019-03-19T15:27:50.033Z,9.83
2019-03-19T15:30:55.236Z,9.67
2019-03-19T15:34:00.371Z,9.61
2019-03-19T15:37:05.508Z,9.51
2019-03-19T15:40:12.448Z,9.31
2019-03-19T15:43:17.579Z,9.12
2019-03-19T15:46:22.789Z,9.28
2019-03-19T15:49:37.826Z,9.28
2019-03-19T15:52:34.848Z,9.19
2019-03-19T15:55:41.997Z,9.04
2019-03-19T15:58:47.189Z,8.85
2019-03-19T16:01:52.308Z,8.73
2019-03-19T16:04:57.479Z,8.59
2019-03-19T16:08:02.639Z,8.60
2019-03-19T16:11:08.253Z,8.50
2019-03-19T16:14:13.385Z,8.39
2019-03-19T16:17:18.614Z,8.33
2019-03-19T16:20:23.746Z,8.35
2019-03-19T16:23:28.932Z,8.36
2019-03-19T16:26:34.215Z,8.27
2019-03-19T16:29:39.485Z,8.08
2019-03-19T16:32:44.589Z,7.89
2019-03-19T16:35:49.720Z,7.65
2019-03-19T16:38:54.860Z,7.58
2019-03-19T16:42:00.063Z,7.67
2019-03-19T16:45:05.603Z,7.56
2019-03-19T16:48:10.827Z,7.54
2019-03-19T16:51:16.004Z,7.51
2019-03-19T16:54:21.203Z,7.16
2019-03-19T16:57:26.421Z,7.14
2019-03-19T17:00:31.611Z,7.29
2019-03-19T17:03:36.799Z,7.34
2019-03-19T17:06:42.006Z,7.30
2019-03-19T17:09:47.090Z,7.25
2019-03-19T17:12:52.293Z,6.90
2019-03-19T17:15:57.501Z,6.60
2019-03-19T17:19:04.136Z,6.43
2019-03-19T17:22:09.503Z,6.31
2019-03-19T17:25:15.624Z,6.15
2019-03-19T17:28:22.774Z,6.10
2019-03-19T17:31:27.773Z,6.06
2019-03-19T17:34:32.979Z,5.97
2019-03-19T17:37:38.202Z,5.83
2019-03-19T17:40:43.323Z,5.85
2019-03-19T17:43:48.522Z,5.60
2019-03-19T17:46:53.750Z,5.46
2019-03-19T17:49:58.950Z,5.41
2019-03-19T17:53:04.102Z,5.30
2019-03-19T17:56:10.088Z,5.08
2019-03-19T17:59:16.409Z,4.72
2019-03-19T18:02:24.263Z,4.38
2019-03-19T18:05:31.165Z,4.06
2019-03-19T18:08:36.357Z,3.71
2019-03-19T18:11:41.545Z,3.57
2019-03-19T18:14:46.744Z,3.49
2019-03-19T18:17:51.962Z,3.22
2019-03-19T18:20:57.152Z,3.20
2019-03-19T18:24:02.392Z,3.00
2019-03-19T18:27:07.554Z,2.89
2019-03-19T18:30:13.477Z,2.84
2019-03-19T18:33:18.632Z,2.91
2019-03-19T18:36:23.823Z,2.91
2019-03-19T18:39:29.009Z,2.79
2019-03-19T18:42:34.171Z,2.86
2019-03-19T18:45:39.345Z,2.93
2019-03-19T18:48:44.630Z,2.98
2019-03-19T18:51:49.881Z,2.98
2019-03-19T18:54:55.078Z,2.80
2019-03-19T18:58:00.305Z,2.42
2019-03-19T19:01:05.488Z,2.21
2019-03-19T19:04:10.654Z,2.08
2019-03-19T19:07:15.793Z,1.89
2019-03-19T19:10:21.739Z,1.85
2019-03-19T19:13:27.140Z,1.80
2019-03-19T19:16:32.353Z,1.66
2019-03-19T19:19:37.627Z,1.68
2019-03-19T19:22:42.815Z,1.66
2019-03-19T19:25:47.968Z,1.75
2019-03-19T19:28:53.167Z,1.64
2019-03-19T19:31:58.299Z,1.57
2019-03-19T19:35:04.539Z,1.44
2019-03-19T19:38:09.761Z,1.28
2019-03-19T19:41:15.244Z,1.17
2019-03-19T19:44:20.438Z,1.12
2019-03-19T19:47:25.587Z,1.32
2019-03-19T19:50:31.839Z,1.18
2019-03-19T19:53:37.024Z,1.02
2019-03-19T19:56:42.204Z,1.24
2019-03-19T19:59:47.365Z,1.32
2019-03-19T20:02:52.507Z,1.34
2019-03-19T20:05:57.733Z,1.35
2019-03-19T20:09:03.508Z,1.31
2019-03-19T20:12:09.063Z,1.05
2019-03-19T20:15:14.340Z,0.79
2019-03-19T20:18:19.663Z,0.65
2019-03-19T20:21:24.773Z,0.68
2019-03-19T20:24:29.894Z,0.46
2019-03-19T20:27:35.102Z,0.32
2019-03-19T20:30:40.218Z,0.32
2019-03-19T20:33:45.387Z,0.56
2019-03-19T20:36:50.677Z,0.34
2019-03-19T20:39:56.003Z,0.13
2019-03-19T20:43:01.167Z,0.18
2019-03-19T20:46:06.885Z,0.24
2019-03-19T20:49:12.061Z,0.08
2019-03-19T20:52:17.227Z,0.10
2019-03-19T20:55:22.411Z,0.04
2019-03-19T20:58:27.664Z,0.04
2019-03-19T21:01:34.035Z,-0.01
2019-03-19T21:04:39.289Z,-0.06
2019-03-19T21:07:44.419Z,-0.18
2019-03-19T21:10:49.708Z,-0.40
2019-03-19T21:13:54.887Z,-0.49
2019-03-19T21:17:00.034Z,-0.29
2019-03-19T21:20:05.693Z,-0.10
2019-03-19T21:23:10.884Z,-0.07
2019-03-19T21:26:16.249Z,-0.23
2019-03-19T21:29:21.684Z,-0.50
2019-03-19T21:32:27.087Z,-0.43
2019-03-19T21:35:32.293Z,-0.47
2019-03-19T21:38:37.456Z,-0.56
2019-03-19T21:41:42.649Z,-0.58
2019-03-19T21:44:47.786Z,-0.50
2019-03-19T21:47:52.918Z,-0.46
2019-03-19T21:50:58.033Z,-0.66
2019-03-19T21:54:03.308Z,-0.51
2019-03-19T21:57:07.902Z,-0.58
2019-03-19T22:00:14.905Z,-0.56
2019-03-19T22:03:20.207Z,-0.45
2019-03-19T22:06:25.553Z,-0.46
2019-03-19T22:09:30.796Z,-0.45
2019-03-19T22:12:35.984Z,-0.57
2019-03-19T22:15:41.243Z,-0.54
2019-03-19T22:18:46.475Z,-0.33
2019-03-19T22:21:51.748Z,-0.58
2019-03-19T22:24:56.833Z,-0.43
2019-03-19T22:28:02.141Z,-0.43
2019-03-19T22:31:07.414Z,-0.34
2019-03-19T22:34:14.249Z,-0.41
2019-03-19T22:37:19.425Z,-0.37
2019-03-19T22:40:25.669Z,-0.43
2019-03-19T22:43:30.903Z,-0.49
2019-03-19T22:46:36.110Z,-0.41
2019-03-19T22:49:41.326Z,-0.43
2019-03-19T22:52:46.497Z,-0.37
2019-03-19T22:55:51.578Z,-0.27
2019-03-19T22:58:56.758Z,-0.37
2019-03-19T23:02:01.980Z,-0.46
2019-03-19T23:05:08.079Z,-0.35
2019-03-19T23:08:13.238Z,-0.28
2019-03-19T23:11:18.480Z,-0.34
2019-03-19T23:14:23.972Z,-0.35
2019-03-19T23:17:29.133Z,-0.34
2019-03-19T23:20:34.386Z,-0.18
2019-03-19T23:23:39.671Z,-0.38
2019-03-19T23:26:44.847Z,-0.59
2019-03-19T23:29:50.092Z,-0.81
2019-03-19T23:32:55.306Z,-0.97
2019-03-19T23:36:00.470Z,-1.09
2019-03-19T23:39:07.548Z,-1.00
2019-03-19T23:42:12.793Z,-1.04
2019-03-19T23:45:18.199Z,-1.23
2019-03-19T23:48:23.362Z,-1.20
2019-03-19T23:51:28.551Z,-1.13
2019-03-19T23:54:33.723Z,-1.09
2019-03-19T23:57:38.936Z,-1.01
